Terminal Aerodrome Forecast
Issued by NWS

Home | Current Version | Previous Version | Text Only | Print | Product List | Glossary On
Versions: 1 2 3 4 5 6 7 8 9 10 11 12 13
000
FTUS46 KPDT 231738
TAFDLS
TAF
KDLS 231738Z 2318/2418 32008KT P6SM SCT130
     FM232100 30011KT P6SM VCSH BKN050
     FM240600 30008KT P6SM -SHRA BKN040 OVC100=

USA.gov is the U.S. government's official web portal to all federal, state and local government web resources and services.